Informes METAR proximidad

   
EHVK - Volkel Rnlafb, Netherlands
Distancia hasta la estación: SW 18 km
Actualización: 23-10-2019 07:11
Niebla, Nublado  
Niebla, Nublado  
   Viento: NE 7.4 km/h
Viento: NE 7.4 km/h
Temperatura: 11°C
Punto de rocio: 11°C
Humedad: 100%
Barometro: 1018 hPa
Nublado: Nublado
Visibilidad: 2 km
detalles de la nube: Nubes dispersas 7500 ft,
Nublado 8500 ft
EHVK 230711Z AUTO 04004KT 020V080 2300 R06L/2300N BR FEW075 OVC085 11/11 Q1018 YLO 05005KT 1500 BR FEW002 SCT004 BKN080
EDLV - Niederrhein, Germany
Distancia hasta la estación: SE 25 km
Actualización: 23-10-2019 06:50
Niebla, Parcialmente Nublado  
Niebla, Parcialmente Nublado  
   Viento: varía 3.7 km/h
Viento: varía 3.7 km/h
Temperatura: 11°C
Punto de rocio: 11°C
Humedad: 100%
Barometro: 1018 hPa
Nublado: Parcialmente Nublado
Visibilidad: 5 km
detalles de la nube: Parcialmente Nublado
EDLV 230650Z VRB02KT 5000 BR NSC 11/11 Q1018
EHDL - Deelen Rnlafb, Netherlands
Distancia hasta la estación: N 35 km
Actualización: 23-10-2019 06:55
Niebla, Nublado  
Niebla, Nublado  
   Viento: ENE 5.6 km/h
Viento: ENE 5.6 km/h
Temperatura: 10°C
Térmica: 9°C
Punto de rocio: 10°C
Humedad: 100%
Barometro: 1019 hPa
Nublado: Nublado
Visibilidad: 0 km
detalles de la nube: Nublado
EHDL 230655Z AUTO 06003KT 340V150 0200 FG VV000 10/10 Q1019 RED
EHEH - Eindhoven Rnlafb, Netherlands
Distancia hasta la estación: SW 48 km
Actualización: 23-10-2019 06:55
Niebla, Nublado  
Niebla, Nublado  
   Viento: NE 11.1 km/h
Viento: NE 11.1 km/h
Temperatura: 11°C
Punto de rocio: 11°C
Humedad: 100%
Barometro: 1018 hPa
Nublado: Nublado
Visibilidad: 3 km
detalles de la nube: Nublado 9000 ft
EHEH 230655Z AUTO 05006KT 360V120 3300 R03/P3000N BR OVC090 11/11 Q1018 YLO 05004KT 2200 BR FEW004 BKN080 TEMPO SCT003 BKN080
EHGR - Gilze-Rijen Rnla, Netherlands
Distancia hasta la estación: WSW 70 km
Actualización: 23-10-2019 07:07
lluvia, Parcialmente nublado  
lluvia, Parcialmente nublado  
   Viento: NE 11.1 km/h
Viento: NE 11.1 km/h
Temperatura: 11°C
Punto de rocio: 11°C
Humedad: 100%
Barometro: 1018 hPa
Nublado: Parcialmente nublado
Visibilidad: 2 km
detalles de la nube: Parcialmente Nublado 100 ft,
Parcialmente Nublado 7400 ft,
Parcialmente nublado 8200 ft
EHGR 230707Z AUTO 04006KT 350V080 1900 R10/1900N -RA SCT001 SCT074 BKN082 11/11 Q1018 RED 04005KT 2300 BR SCT070 BKN090 TEMPO FEW002 SCT004 BKN090
EBBL - Kleine-Brogel(Ba, Belgium
Distancia hasta la estación: SSW 71 km
Actualización: 23-10-2019 07:03
Niebla, Parcialmente nublado  
Niebla, Parcialmente nublado  
   Viento: NE 11.1 km/h
Viento: NE 11.1 km/h
Temperatura: 11°C
Punto de rocio: 10°C
Humedad: 94%
Barometro: 1018 hPa
Nublado: Parcialmente nublado
Visibilidad: 5 km
detalles de la nube: Parcialmente nublado 6300 ft
EBBL 230703Z AUTO 04006KT 4600 BR BKN063/// 11/10 Q1018 GRN

Guión original por  Saratoga-weather.org Adaptado para la plantilla por  Weerstation Leuven